Time;durP1;ratioP1;P1;durP2;ratioP2;P2;SDS_P1;SDS_P2;PMS_P1;PMS_P2;Temp;Humidity;BMP_temperature;BMP_pressure;BME280_temperature;BME280_humidity;BME280_pressure;Samples;Min_cycle;Max_cycle;Signal;HPM_P1;HPM_P2
2023/12/19 00:02:03;;;;;;;;;;;;;;;12.51;nan;102016.59;5029203;28;19967;-85
2023/12/19 00:04:30;;;;;;;;;;;;;;;12.51;nan;102019.28;5027788;28;20059;-85
2023/12/19 00:06:55;;;;;;;;;;;;;;;12.52;nan;102015.56;5028730;28;19925;-84
2023/12/19 00:09:21;;;;;;;;;;;;;;;12.52;nan;102004.81;5028860;28;19983;-84
2023/12/19 00:11:46;;;;;;;;;;;;;;;12.52;nan;102007.50;5029478;28;19928;-84
2023/12/19 00:14:12;;;;;;;;;;;;;;;12.53;nan;102006.44;5029084;28;20525;-85
2023/12/19 00:16:37;;;;;;;;;;;;;;;12.52;nan;101986.00;5028500;28;19937;-85
2023/12/19 00:19:02;;;;;;;;;;;;;;;12.49;nan;101999.88;5030286;28;20441;-84
2023/12/19 00:21:27;;;;;;;;;;;;;;;12.50;nan;102020.34;5026941;28;19925;-84
2023/12/19 00:23:53;;;;;;;;;;;;;;;12.53;nan;102017.19;5029040;28;20432;-84
2023/12/19 00:26:18;;;;;;;;;;;;;;;12.52;nan;102035.19;5026706;28;19932;-85
2023/12/19 00:28:44;;;;;;;;;;;;;;;12.45;nan;102036.34;5010058;28;19971;-85
2023/12/19 00:31:09;;;;;;;;;;;;;;;12.50;nan;102025.72;5027477;28;19925;-85
2023/12/19 00:33:34;;;;;;;;;;;;;;;12.51;nan;102017.44;5028243;28;19921;-84
2023/12/19 00:35:59;;;;;;;;;;;;;;;12.49;nan;102024.91;5029547;28;19929;-84
2023/12/19 00:38:25;;;;;;;;;;;;;;;12.53;nan;102025.25;5029134;28;20134;-84
2023/12/19 00:40:50;;;;;;;;;;;;;;;12.48;nan;102011.69;5030038;28;19929;-85
2023/12/19 00:43:15;;;;;;;;;;;;;;;12.52;nan;102016.38;5028680;28;20361;-84
2023/12/19 00:45:40;;;;;;;;;;;;;;;12.59;nan;102019.81;5028843;28;19936;-85
2023/12/19 00:48:06;;;;;;;;;;;;;;;12.64;nan;102017.22;5028168;28;20358;-84
2023/12/19 00:50:31;;;;;;;;;;;;;;;12.64;nan;102022.59;5028327;28;20012;-84
2023/12/19 00:52:56;;;;;;;;;;;;;;;12.64;nan;102006.47;5028693;28;19928;-84
2023/12/19 00:55:22;;;;;;;;;;;;;;;12.63;nan;102009.41;5028118;28;21164;-83
2023/12/19 00:57:48;;;;;;;;;;;;;;;12.65;nan;102008.13;5028305;28;19925;-84
2023/12/19 01:00:13;;;;;;;;;;;;;;;12.61;nan;101995.38;5029238;28;19925;-85
2023/12/19 01:02:38;;;;;;;;;;;;;;;12.54;nan;102000.00;5028394;28;21028;-84
2023/12/19 01:05:04;;;;;;;;;;;;;;;12.52;nan;102026.31;5010767;28;19917;-84
2023/12/19 01:07:29;;;;;;;;;;;;;;;12.54;nan;102016.16;5027317;28;19925;-85
2023/12/19 01:09:54;;;;;;;;;;;;;;;12.50;nan;102031.91;5028587;28;19932;-84
2023/12/19 01:12:20;;;;;;;;;;;;;;;12.47;nan;102032.38;5029001;28;19932;-84
2023/12/19 01:14:45;;;;;;;;;;;;;;;12.47;nan;102035.06;5030242;28;20444;-84
2023/12/19 01:17:10;;;;;;;;;;;;;;;12.48;nan;102022.44;5026988;28;20369;-84
2023/12/19 01:19:37;;;;;;;;;;;;;;;12.50;nan;102023.84;5029415;28;19928;-85
2023/12/19 01:22:03;;;;;;;;;;;;;;;12.52;nan;102015.56;5029230;28;19931;-85
2023/12/19 01:24:28;;;;;;;;;;;;;;;12.55;nan;102017.78;5028627;28;19925;-85
2023/12/19 01:26:53;;;;;;;;;;;;;;;12.54;nan;102014.28;5027113;28;20016;-85
2023/12/19 01:29:19;;;;;;;;;;;;;;;12.52;nan;102020.94;5010102;28;20446;-85
2023/12/19 01:31:44;;;;;;;;;;;;;;;12.51;nan;102038.13;5028020;28;19957;-85
2023/12/19 01:34:09;;;;;;;;;;;;;;;12.58;nan;102034.28;5009643;28;19963;-84
2023/12/19 01:36:34;;;;;;;;;;;;;;;12.61;nan;102027.63;5028880;28;19929;-85
2023/12/19 01:39:00;;;;;;;;;;;;;;;12.66;nan;102023.19;5031280;28;19988;-85
2023/12/19 01:41:25;;;;;;;;;;;;;;;12.68;nan;102022.97;5031004;28;19936;-84
2023/12/19 01:43:55;;;;;;;;;;;;;;;12.71;nan;102001.81;5033166;28;19925;-84
2023/12/19 01:46:21;;;;;;;;;;;;;;;12.76;nan;102000.31;5031711;28;20506;-84
2023/12/19 01:48:46;;;;;;;;;;;;;;;12.77;nan;101991.19;5030098;28;19953;-84
2023/12/19 01:51:12;;;;;;;;;;;;;;;12.71;nan;101987.53;5030528;28;19921;-85
2023/12/19 01:53:38;;;;;;;;;;;;;;;12.69;nan;101985.09;5032283;28;19924;-85
2023/12/19 01:56:04;;;;;;;;;;;;;;;12.70;nan;102000.16;5032740;28;20008;-84
2023/12/19 01:58:30;;;;;;;;;;;;;;;12.75;nan;102014.78;5030923;28;19935;-84
2023/12/19 02:00:56;;;;;;;;;;;;;;;12.71;nan;101988.34;5032484;28;20301;-84
2023/12/19 02:03:21;;;;;;;;;;;;;;;12.69;nan;101986.94;5029514;28;19921;-85
2023/12/19 02:05:49;;;;;;;;;;;;;;;12.68;nan;101996.06;5033289;28;19925;-85
2023/12/19 02:08:15;;;;;;;;;;;;;;;12.65;nan;101983.09;5032263;28;19928;-85
2023/12/19 02:10:41;;;;;;;;;;;;;;;12.61;nan;101968.47;5031657;28;20611;-84
2023/12/19 02:13:06;;;;;;;;;;;;;;;12.57;nan;101975.38;5031178;28;20088;-84
2023/12/19 02:15:31;;;;;;;;;;;;;;;12.53;nan;101991.13;5030489;28;19960;-85
2023/12/19 02:17:57;;;;;;;;;;;;;;;12.55;nan;101974.75;5031410;28;19925;-85
2023/12/19 02:20:22;;;;;;;;;;;;;;;12.60;nan;101964.97;5031018;28;19941;-85
2023/12/19 02:22:49;;;;;;;;;;;;;;;12.62;nan;101954.81;5031481;28;19948;-86
2023/12/19 02:25:15;;;;;;;;;;;;;;;12.66;nan;101944.41;5031525;28;19956;-85
2023/12/19 02:27:41;;;;;;;;;;;;;;;12.61;nan;101941.59;5028905;28;20039;-84
2023/12/19 02:30:06;;;;;;;;;;;;;;;12.58;nan;101925.94;5031472;28;20998;-85
2023/12/19 02:32:32;;;;;;;;;;;;;;;12.54;nan;101928.25;5030813;28;20378;-85
2023/12/19 02:34:57;;;;;;;;;;;;;;;12.52;nan;101937.59;5032262;28;19912;-86
2023/12/19 02:37:23;;;;;;;;;;;;;;;12.54;nan;101936.31;5031949;28;21249;-84
2023/12/19 02:39:48;;;;;;;;;;;;;;;12.55;nan;101943.31;5029403;28;19928;-85
2023/12/19 02:42:13;;;;;;;;;;;;;;;12.61;nan;101942.41;5031317;28;19974;-84
2023/12/19 02:44:38;;;;;;;;;;;;;;;12.58;nan;101931.31;5029208;28;20295;-84
2023/12/19 02:47:04;;;;;;;;;;;;;;;12.54;nan;101935.50;5031452;28;20019;-84
2023/12/19 02:49:29;;;;;;;;;;;;;;;12.59;nan;101957.16;5032438;28;20031;-84
2023/12/19 02:51:54;;;;;;;;;;;;;;;12.60;nan;101939.97;5031073;28;19928;-84
2023/12/19 02:54:19;;;;;;;;;;;;;;;12.62;nan;101937.84;5032170;28;19925;-85
2023/12/19 02:56:45;;;;;;;;;;;;;;;12.67;nan;101946.03;5029983;28;20024;-85
2023/12/19 02:59:10;;;;;;;;;;;;;;;12.71;nan;101955.25;5030212;28;19925;-84
2023/12/19 03:01:35;;;;;;;;;;;;;;;12.67;nan;101962.16;5029886;28;20385;-86
2023/12/19 03:04:00;;;;;;;;;;;;;;;12.65;nan;101940.06;5030029;28;19917;-84
2023/12/19 03:06:26;;;;;;;;;;;;;;;12.65;nan;101948.13;5030322;28;19925;-85
2023/12/19 03:08:53;;;;;;;;;;;;;;;12.63;nan;101931.44;5011880;28;19916;-85
2023/12/19 03:11:19;;;;;;;;;;;;;;;12.68;nan;101928.84;5029369;28;19968;-85
2023/12/19 03:13:45;;;;;;;;;;;;;;;12.72;nan;101924.63;5030848;28;20471;-85
2023/12/19 03:16:10;;;;;;;;;;;;;;;12.69;nan;101925.09;5030267;28;19932;-84
2023/12/19 03:18:35;;;;;;;;;;;;;;;12.71;nan;101928.38;5027259;28;19929;-86
2023/12/19 03:21:01;;;;;;;;;;;;;;;12.75;nan;101926.88;5029782;28;20397;-85
2023/12/19 03:23:27;;;;;;;;;;;;;;;12.78;nan;101931.78;5029854;28;20017;-85
2023/12/19 03:25:53;;;;;;;;;;;;;;;12.86;nan;101907.22;5030964;28;20054;-85
2023/12/19 03:28:18;;;;;;;;;;;;;;;12.83;nan;101904.19;5029085;28;21336;-84
2023/12/19 03:30:44;;;;;;;;;;;;;;;12.83;nan;101905.00;5030116;28;19924;-84
2023/12/19 03:33:09;;;;;;;;;;;;;;;12.90;nan;101905.69;5030000;28;20039;-85
2023/12/19 03:35:34;;;;;;;;;;;;;;;12.85;nan;101899.38;5030542;28;19975;-85
2023/12/19 03:38:00;;;;;;;;;;;;;;;12.91;nan;101899.25;5029728;28;19952;-85
2023/12/19 03:40:25;;;;;;;;;;;;;;;12.92;nan;101895.50;5030079;28;20415;-85
2023/12/19 03:42:51;;;;;;;;;;;;;;;12.96;nan;101906.63;5030871;28;19921;-85
2023/12/19 03:45:16;;;;;;;;;;;;;;;12.97;nan;101903.72;5008186;28;19925;-84
2023/12/19 03:47:41;;;;;;;;;;;;;;;12.94;nan;101890.72;5027762;28;20015;-85
2023/12/19 03:50:07;;;;;;;;;;;;;;;12.94;nan;101895.31;5029412;28;19964;-85
2023/12/19 03:52:32;;;;;;;;;;;;;;;12.93;nan;101885.59;5030205;28;19921;-85
2023/12/19 03:54:58;;;;;;;;;;;;;;;12.90;nan;101896.78;5029126;28;19925;-85
2023/12/19 03:57:23;;;;;;;;;;;;;;;12.93;nan;101901.72;5029949;28;19925;-85
2023/12/19 03:59:49;;;;;;;;;;;;;;;12.98;nan;101904.53;5027302;28;20389;-84
2023/12/19 04:02:14;;;;;;;;;;;;;;;12.96;nan;101890.50;5028156;28;19924;-85
2023/12/19 04:04:39;;;;;;;;;;;;;;;13.01;nan;101888.72;5030041;28;20534;-85
2023/12/19 04:07:05;;;;;;;;;;;;;;;12.96;nan;101891.31;5010435;28;19924;-85
2023/12/19 04:09:30;;;;;;;;;;;;;;;12.96;nan;101872.47;5030202;28;19925;-84
2023/12/19 04:11:55;;;;;;;;;;;;;;;12.96;nan;101868.97;5029919;28;20016;-85
2023/12/19 04:14:23;;;;;;;;;;;;;;;12.99;nan;101885.47;5029534;28;19924;-85
2023/12/19 04:16:48;;;;;;;;;;;;;;;13.00;nan;101883.59;5028699;28;19936;-84
2023/12/19 04:19:14;;;;;;;;;;;;;;;12.98;nan;101875.75;5008494;28;19925;-86
2023/12/19 04:21:40;;;;;;;;;;;;;;;12.98;nan;101874.94;5029361;28;19928;-85
2023/12/19 04:24:05;;;;;;;;;;;;;;;13.01;nan;101887.91;5029528;28;20009;-85
2023/12/19 04:26:31;;;;;;;;;;;;;;;13.04;nan;101892.00;5028929;28;19932;-85
2023/12/19 04:28:56;;;;;;;;;;;;;;;13.13;nan;101896.78;5029760;28;19925;-85
2023/12/19 04:31:21;;;;;;;;;;;;;;;13.05;nan;101886.38;5028984;28;19925;-85
2023/12/19 04:33:46;;;;;;;;;;;;;;;13.02;nan;101884.97;5011459;28;19956;-84
2023/12/19 04:36:12;;;;;;;;;;;;;;;13.06;nan;101887.19;5028737;28;19925;-85
2023/12/19 04:38:38;;;;;;;;;;;;;;;13.10;nan;101878.41;5028686;28;19940;-85
2023/12/19 04:41:03;;;;;;;;;;;;;;;13.11;nan;101880.06;5030228;28;19917;-85
2023/12/19 04:43:29;;;;;;;;;;;;;;;13.12;nan;101879.00;5029712;28;19924;-85
2023/12/19 04:45:54;;;;;;;;;;;;;;;13.13;nan;101874.44;5028855;28;20838;-85
2023/12/19 04:48:19;;;;;;;;;;;;;;;13.08;nan;101877.00;5028438;28;19921;-86
2023/12/19 04:50:44;;;;;;;;;;;;;;;13.06;nan;101879.13;5029419;28;19925;-85
2023/12/19 04:53:10;;;;;;;;;;;;;;;13.09;nan;101875.94;5028610;28;21220;-84
2023/12/19 04:55:35;;;;;;;;;;;;;;;13.14;nan;101876.09;5030215;28;19928;-85
2023/12/19 04:58:01;;;;;;;;;;;;;;;13.16;nan;101879.34;5028856;28;21287;-85
2023/12/19 05:00:26;;;;;;;;;;;;;;;13.17;nan;101872.91;5028701;28;19931;-85
2023/12/19 05:02:53;;;;;;;;;;;;;;;13.15;nan;101864.25;5028577;28;19968;-84
2023/12/19 05:05:19;;;;;;;;;;;;;;;13.14;nan;101865.31;5028666;28;19925;-85
2023/12/19 05:07:44;;;;;;;;;;;;;;;13.15;nan;101880.41;5009313;28;19925;-85
2023/12/19 05:10:09;;;;;;;;;;;;;;;13.15;nan;101877.72;5029324;28;19925;-85
2023/12/19 05:12:35;;;;;;;;;;;;;;;13.14;nan;101878.78;5029030;28;20518;-85
2023/12/19 05:15:00;;;;;;;;;;;;;;;13.18;nan;101877.25;5033401;28;19924;-85
2023/12/19 05:17:25;;;;;;;;;;;;;;;13.13;nan;101869.88;5031597;28;19967;-85
2023/12/19 05:19:50;;;;;;;;;;;;;;;13.12;nan;101849.41;5032710;28;19925;-85
2023/12/19 05:22:16;;;;;;;;;;;;;;;13.18;nan;101845.78;5032149;28;19925;-85
2023/12/19 05:24:42;;;;;;;;;;;;;;;13.14;nan;101830.34;5032513;28;20605;-85
2023/12/19 05:27:07;;;;;;;;;;;;;;;13.06;nan;101833.38;5014329;28;19931;-85
2023/12/19 05:29:32;;;;;;;;;;;;;;;13.06;nan;101828.81;5015670;28;19925;-86
2023/12/19 05:31:58;;;;;;;;;;;;;;;13.01;nan;101834.91;5033138;28;19917;-85
2023/12/19 05:34:23;;;;;;;;;;;;;;;12.97;nan;101828.38;5030824;28;19928;-85
2023/12/19 05:36:48;;;;;;;;;;;;;;;13.00;nan;101835.16;5032795;28;19920;-84
2023/12/19 05:39:13;;;;;;;;;;;;;;;13.03;nan;101832.00;5032843;28;20549;-85
2023/12/19 05:41:39;;;;;;;;;;;;;;;13.08;nan;101817.81;5032609;28;19925;-85
2023/12/19 05:44:04;;;;;;;;;;;;;;;13.07;nan;101805.41;5030927;28;19991;-85
2023/12/19 05:46:30;;;;;;;;;;;;;;;13.10;nan;101821.09;5031969;28;19921;-86
2023/12/19 05:48:56;;;;;;;;;;;;;;;13.09;nan;101819.44;5032167;28;20321;-85
2023/12/19 05:51:21;;;;;;;;;;;;;;;13.10;nan;101811.13;5032192;28;19924;-85
2023/12/19 05:53:47;;;;;;;;;;;;;;;13.07;nan;101783.91;5032220;28;19924;-85
2023/12/19 05:56:15;;;;;;;;;;;;;;;13.05;nan;101791.41;5030257;28;19925;-85
2023/12/19 05:58:41;;;;;;;;;;;;;;;13.00;nan;101803.69;5031121;28;20028;-85
2023/12/19 06:01:06;;;;;;;;;;;;;;;12.99;nan;101818.19;5031397;28;19924;-85
2023/12/19 06:03:32;;;;;;;;;;;;;;;13.05;nan;101829.06;5032280;28;19963;-85
2023/12/19 06:05:57;;;;;;;;;;;;;;;13.04;nan;101830.13;5031152;28;19921;-85
2023/12/19 06:08:23;;;;;;;;;;;;;;;13.06;nan;101823.44;5031857;28;19928;-85
2023/12/19 06:10:48;;;;;;;;;;;;;;;12.99;nan;101809.31;5031101;28;19916;-85
2023/12/19 06:13:14;;;;;;;;;;;;;;;12.92;nan;101814.81;5032239;28;19924;-85
2023/12/19 06:15:39;;;;;;;;;;;;;;;12.96;nan;101815.19;5030953;28;20062;-85
2023/12/19 06:18:05;;;;;;;;;;;;;;;12.98;nan;101813.88;5031599;28;19929;-85
2023/12/19 06:20:30;;;;;;;;;;;;;;;13.02;nan;101814.22;5030673;28;20488;-84
2023/12/19 06:22:55;;;;;;;;;;;;;;;13.04;nan;101808.59;5029702;28;19925;-86
2023/12/19 06:25:21;;;;;;;;;;;;;;;13.07;nan;101805.41;5028692;28;21447;-85
2023/12/19 06:27:46;;;;;;;;;;;;;;;13.01;nan;101805.31;5039247;28;19917;-85
2023/12/19 06:30:12;;;;;;;;;;;;;;;13.02;nan;101798.88;5047000;28;19927;-85
2023/12/19 06:32:37;;;;;;;;;;;;;;;12.98;nan;101792.34;5039046;28;19917;-85
2023/12/19 06:35:04;;;;;;;;;;;;;;;13.00;nan;101800.19;5047466;28;20408;-86
2023/12/19 06:37:29;;;;;;;;;;;;;;;13.01;nan;101804.50;5041252;28;20565;-85
2023/12/19 06:39:54;;;;;;;;;;;;;;;13.02;nan;101819.59;5042897;28;19921;-86
2023/12/19 06:42:21;;;;;;;;;;;;;;;12.99;nan;101803.94;5048243;28;20015;-85
2023/12/19 06:44:47;;;;;;;;;;;;;;;13.01;nan;101796.44;5044027;28;19916;-85
2023/12/19 06:47:14;;;;;;;;;;;;;;;13.00;nan;101786.75;5044332;28;20526;-86
2023/12/19 06:49:39;;;;;;;;;;;;;;;12.99;nan;101791.31;5027079;28;20020;-85
2023/12/19 06:52:04;;;;;;;;;;;;;;;12.99;nan;101787.78;5043210;28;20016;-85
2023/12/19 06:54:32;;;;;;;;;;;;;;;12.95;nan;101782.06;5045477;28;19924;-86
2023/12/19 06:56:57;;;;;;;;;;;;;;;12.89;nan;101795.66;5041205;28;20480;-85
2023/12/19 06:59:22;;;;;;;;;;;;;;;12.89;nan;101785.69;5044396;28;20010;-85
2023/12/19 07:01:48;;;;;;;;;;;;;;;12.95;nan;101787.47;5043716;28;20379;-85
2023/12/19 07:04:13;;;;;;;;;;;;;;;12.92;nan;101797.84;5045172;28;19920;-85
2023/12/19 07:06:38;;;;;;;;;;;;;;;12.97;nan;101795.28;5039293;28;19924;-85
2023/12/19 07:09:03;;;;;;;;;;;;;;;12.97;nan;101806.88;5043763;28;19917;-85
2023/12/19 07:11:30;;;;;;;;;;;;;;;12.97;nan;101823.00;5042647;28;20296;-85
2023/12/19 07:13:55;;;;;;;;;;;;;;;13.01;nan;101813.41;5040912;28;20020;-85
2023/12/19 07:16:21;;;;;;;;;;;;;;;13.01;nan;101794.56;5045574;28;20015;-86
2023/12/19 07:18:47;;;;;;;;;;;;;;;13.05;nan;101800.28;5041651;28;19927;-86
2023/12/19 07:21:22;;;;;;;;;;;;;;;13.03;nan;101810.47;5038915;28;19924;-86
2023/12/19 07:23:48;;;;;;;;;;;;;;;12.98;nan;101818.44;5037933;28;19948;-85
2023/12/19 07:26:20;;;;;;;;;;;;;;;12.99;nan;101814.69;5038386;28;20498;-86
2023/12/19 07:28:46;;;;;;;;;;;;;;;12.99;nan;101815.50;5038748;28;19999;-86
2023/12/19 07:31:24;;;;;;;;;;;;;;;13.04;nan;101797.84;5039530;28;20468;-85
2023/12/19 07:33:51;;;;;;;;;;;;;;;13.05;nan;101797.59;5043580;28;19925;-85
2023/12/19 07:36:17;;;;;;;;;;;;;;;13.01;nan;101796.44;5046832;28;19918;-86
2023/12/19 07:38:42;;;;;;;;;;;;;;;12.94;nan;101795.78;5041320;28;19928;-86
2023/12/19 07:41:08;;;;;;;;;;;;;;;12.91;nan;101794.34;5043697;28;19991;-85
2023/12/19 07:43:33;;;;;;;;;;;;;;;12.85;nan;101798.00;5041458;28;20046;-85
2023/12/19 07:45:58;;;;;;;;;;;;;;;12.85;nan;101794.50;5043712;28;19991;-85
2023/12/19 07:48:24;;;;;;;;;;;;;;;12.87;nan;101806.63;5041397;28;20376;-86
2023/12/19 07:50:50;;;;;;;;;;;;;;;12.82;nan;101806.53;5041327;28;20004;-85
2023/12/19 07:53:15;;;;;;;;;;;;;;;12.84;nan;101798.25;5041215;28;20529;-84
2023/12/19 07:55:41;;;;;;;;;;;;;;;12.87;nan;101798.56;5042496;28;20374;-84
2023/12/19 07:58:07;;;;;;;;;;;;;;;12.89;nan;101801.84;5041184;28;20470;-85
2023/12/19 08:00:33;;;;;;;;;;;;;;;12.88;nan;101794.81;5040171;28;20028;-85
2023/12/19 08:02:58;;;;;;;;;;;;;;;12.87;nan;101787.00;5042474;28;20330;-85
2023/12/19 08:05:23;;;;;;;;;;;;;;;12.85;nan;101792.63;5045659;28;19955;-85
2023/12/19 08:07:48;;;;;;;;;;;;;;;12.85;nan;101787.25;5039071;28;20015;-85
2023/12/19 08:10:14;;;;;;;;;;;;;;;12.85;nan;101787.25;5038398;28;19932;-85
2023/12/19 08:12:39;;;;;;;;;;;;;;;12.87;nan;101774.38;5041480;28;19920;-86
2023/12/19 08:15:04;;;;;;;;;;;;;;;12.92;nan;101765.56;5043976;28;20515;-85
2023/12/19 08:17:30;;;;;;;;;;;;;;;12.93;nan;101757.28;5041006;28;19932;-85
2023/12/19 08:19:55;;;;;;;;;;;;;;;12.94;nan;101744.66;5037737;28;20662;-84
2023/12/19 08:22:21;;;;;;;;;;;;;;;13.01;nan;101753.41;5049168;28;19921;-85
2023/12/19 08:24:46;;;;;;;;;;;;;;;13.05;nan;101742.97;5035656;28;19921;-85
2023/12/19 08:27:12;;;;;;;;;;;;;;;13.00;nan;101747.19;5042014;28;19924;-85
2023/12/19 08:29:37;;;;;;;;;;;;;;;12.99;nan;101739.38;5043237;28;20011;-85
2023/12/19 08:32:02;;;;;;;;;;;;;;;12.95;nan;101733.66;5038350;28;19917;-85
2023/12/19 08:34:28;;;;;;;;;;;;;;;13.00;nan;101730.25;5039730;28;19920;-85
2023/12/19 08:36:53;;;;;;;;;;;;;;;12.97;nan;101736.94;5040350;28;19967;-85
2023/12/19 08:39:18;;;;;;;;;;;;;;;13.03;nan;101724.38;5035936;28;19932;-85
2023/12/19 08:41:45;;;;;;;;;;;;;;;13.10;nan;101727.72;5040543;28;20011;-85
2023/12/19 08:44:10;;;;;;;;;;;;;;;13.06;nan;101723.88;5032386;28;19975;-85
2023/12/19 08:46:35;;;;;;;;;;;;;;;13.06;nan;101723.06;5042330;28;19916;-85
2023/12/19 08:49:02;;;;;;;;;;;;;;;13.05;nan;101724.13;5045403;28;20427;-86
2023/12/19 08:51:27;;;;;;;;;;;;;;;13.08;nan;101729.03;5044308;28;19939;-86
2023/12/19 08:53:52;;;;;;;;;;;;;;;13.10;nan;101716.16;5041037;28;20407;-86
2023/12/19 08:56:18;;;;;;;;;;;;;;;13.11;nan;101707.03;5046152;28;19916;-86
2023/12/19 08:58:44;;;;;;;;;;;;;;;13.11;nan;101702.47;5044681;28;19924;-85
2023/12/19 09:01:09;;;;;;;;;;;;;;;13.10;nan;101700.00;5048035;28;20427;-84
2023/12/19 09:03:35;;;;;;;;;;;;;;;13.10;nan;101700.00;5047185;28;19928;-84
2023/12/19 09:06:01;;;;;;;;;;;;;;;13.10;nan;101700.00;5048130;28;20296;-85
2023/12/19 09:08:26;;;;;;;;;;;;;;;13.10;nan;101694.63;5044245;28;19925;-85
2023/12/19 09:10:51;;;;;;;;;;;;;;;13.17;nan;101692.63;5051368;28;20507;-86
2023/12/19 09:13:17;;;;;;;;;;;;;;;13.19;nan;101706.66;5041257;28;19932;-85
2023/12/19 09:15:42;;;;;;;;;;;;;;;13.15;nan;101700.13;5045739;28;20396;-85
2023/12/19 09:18:07;;;;;;;;;;;;;;;13.12;nan;101687.97;5047558;28;19924;-85
2023/12/19 09:20:33;;;;;;;;;;;;;;;13.10;nan;101679.28;5042620;28;20039;-85
2023/12/19 09:22:58;;;;;;;;;;;;;;;13.13;nan;101683.41;5048019;28;19924;-85
2023/12/19 09:25:23;;;;;;;;;;;;;;;13.14;nan;101680.47;5044178;28;20369;-84
2023/12/19 09:27:48;;;;;;;;;;;;;;;13.08;nan;101696.75;5020081;28;19917;-85
2023/12/19 09:30:15;;;;;;;;;;;;;;;13.06;nan;101696.16;5046817;28;20478;-85
2023/12/19 09:32:41;;;;;;;;;;;;;;;13.00;nan;101689.88;5046419;28;20693;-85
2023/12/19 09:35:07;;;;;;;;;;;;;;;12.94;nan;101680.91;5048306;28;19920;-85
2023/12/19 09:37:32;;;;;;;;;;;;;;;12.89;nan;101680.81;5043886;28;20011;-84
2023/12/19 09:39:57;;;;;;;;;;;;;;;12.89;nan;101666.53;5047686;28;19924;-85
2023/12/19 09:42:22;;;;;;;;;;;;;;;12.88;nan;101670.28;5047849;28;20029;-84
2023/12/19 09:44:48;;;;;;;;;;;;;;;12.89;nan;101671.91;5050209;28;19921;-84
2023/12/19 09:47:23;;;;;;;;;;;;;;;12.85;nan;101666.22;5027829;28;19917;-85
2023/12/19 09:49:51;;;;;;;;;;;;;;;12.83;nan;101667.50;5053981;28;19927;-85
2023/12/19 09:52:16;;;;;;;;;;;;;;;12.85;nan;101658.13;5045080;28;19978;-85
2023/12/19 09:54:41;;;;;;;;;;;;;;;12.88;nan;101652.28;5056893;28;20389;-84
2023/12/19 09:57:08;;;;;;;;;;;;;;;12.88;nan;101646.09;5046226;28;19925;-85
2023/12/19 09:59:35;;;;;;;;;;;;;;;12.85;nan;101631.25;5049762;28;19921;-85
2023/12/19 10:02:00;;;;;;;;;;;;;;;12.87;nan;101618.38;5054039;28;20376;-85
2023/12/19 10:04:27;;;;;;;;;;;;;;;12.91;nan;101608.75;5050146;28;19931;-85
2023/12/19 10:06:53;;;;;;;;;;;;;;;12.92;nan;101598.81;5041600;28;19946;-85
2023/12/19 10:09:19;;;;;;;;;;;;;;;12.93;nan;101600.47;5039659;28;20479;-84
2023/12/19 10:11:44;;;;;;;;;;;;;;;12.91;nan;101579.16;5052523;28;19928;-84
2023/12/19 10:14:14;;;;;;;;;;;;;;;12.88;nan;101576.97;5046181;28;19957;-82
2023/12/19 10:16:42;;;;;;;;;;;;;;;12.89;nan;101577.78;5043709;28;20031;-84
2023/12/19 10:19:11;;;;;;;;;;;;;;;12.90;nan;101582.09;5049481;28;20015;-85
2023/12/19 10:21:36;;;;;;;;;;;;;;;12.89;nan;101586.66;5048958;28;19987;-85
2023/12/19 10:24:09;;;;;;;;;;;;;;;12.93;nan;101579.75;5045570;28;19928;-86
2023/12/19 10:26:34;;;;;;;;;;;;;;;12.90;nan;101584.78;5035576;28;19917;-85
2023/12/19 10:28:59;;;;;;;;;;;;;;;12.94;nan;101592.16;5048799;28;20304;-84
2023/12/19 10:31:24;;;;;;;;;;;;;;;12.93;nan;101582.47;5044256;28;20004;-85
2023/12/19 10:33:51;;;;;;;;;;;;;;;12.95;nan;101564.19;5051376;28;19924;-84
2023/12/19 10:36:25;;;;;;;;;;;;;;;12.98;nan;101561.00;5045186;28;19921;-84
2023/12/19 10:38:51;;;;;;;;;;;;;;;12.95;nan;101561.50;5051259;28;19929;-85
2023/12/19 10:41:27;;;;;;;;;;;;;;;12.98;nan;101558.31;5043343;28;19960;-85
2023/12/19 10:43:55;;;;;;;;;;;;;;;12.97;nan;101553.19;5050168;28;19917;-85
2023/12/19 10:46:24;;;;;;;;;;;;;;;12.92;nan;101535.06;5040852;28;19921;-85
2023/12/19 10:49:03;;;;;;;;;;;;;;;12.96;nan;101535.41;5052141;28;19924;-85
2023/12/19 10:51:41;;;;;;;;;;;;;;;12.98;nan;101530.59;5044183;28;19925;-85
2023/12/19 10:54:13;;;;;;;;;;;;;;;13.04;nan;101526.13;5045767;28;19916;-85
2023/12/19 10:56:38;;;;;;;;;;;;;;;13.02;nan;101519.09;5047886;28;19928;-85
2023/12/19 10:59:07;;;;;;;;;;;;;;;13.04;nan;101513.47;5049041;28;19920;-84
2023/12/19 11:01:40;;;;;;;;;;;;;;;13.05;nan;101507.03;5050615;28;19925;-85
2023/12/19 11:04:19;;;;;;;;;;;;;;;13.05;nan;101511.59;5047251;28;19920;-85
2023/12/19 11:06:48;;;;;;;;;;;;;;;13.09;nan;101501.97;5050433;28;19928;-85
2023/12/19 11:09:14;;;;;;;;;;;;;;;13.11;nan;101507.94;5053791;28;19997;-85
2023/12/19 11:11:42;;;;;;;;;;;;;;;13.15;nan;101493.75;5051537;28;19928;-85
2023/12/19 11:14:07;;;;;;;;;;;;;;;13.15;nan;101490.25;5048221;28;19923;-85
2023/12/19 11:16:36;;;;;;;;;;;;;;;13.15;nan;101485.69;5040481;28;19921;-85
2023/12/19 11:19:04;;;;;;;;;;;;;;;13.20;nan;101479.56;5049293;28;20003;-84
2023/12/19 11:21:48;;;;;;;;;;;;;;;13.20;nan;101466.13;5038569;28;19968;-84
2023/12/19 11:24:18;;;;;;;;;;;;;;;13.18;nan;101468.25;5043167;28;19916;-85
2023/12/19 11:26:52;;;;;;;;;;;;;;;13.18;nan;101462.88;5041942;28;19983;-84
2023/12/19 11:29:36;;;;;;;;;;;;;;;13.18;nan;101468.25;5039943;28;20012;-84
2023/12/19 11:32:21;;;;;;;;;;;;;;;13.19;nan;101470.69;5040094;28;19925;-85
2023/12/19 11:34:46;;;;;;;;;;;;;;;13.15;nan;101457.97;5038001;28;19959;-84
2023/12/19 11:37:19;;;;;;;;;;;;;;;13.18;nan;101462.88;5044180;28;19956;-85
2023/12/19 11:39:44;;;;;;;;;;;;;;;13.19;nan;101442.97;5049888;28;19924;-85
2023/12/19 11:42:30;;;;;;;;;;;;;;;13.17;nan;101450.44;5044493;28;19923;-85
2023/12/19 11:44:55;;;;;;;;;;;;;;;13.16;nan;101455.00;5044000;28;20393;-85
2023/12/19 11:47:20;;;;;;;;;;;;;;;13.17;nan;101450.44;5045279;28;19920;-84
2023/12/19 11:49:46;;;;;;;;;;;;;;;13.15;nan;101441.81;5041258;28;20362;-84
2023/12/19 11:52:32;;;;;;;;;;;;;;;13.18;nan;101446.72;5047439;28;19920;-84
2023/12/19 11:54:58;;;;;;;;;;;;;;;13.17;nan;101439.69;5042681;28;19924;-84
2023/12/19 11:57:23;;;;;;;;;;;;;;;13.16;nan;101435.38;5040678;28;19920;-84
2023/12/19 11:59:51;;;;;;;;;;;;;;;13.18;nan;101420.63;5033971;28;19925;-84
2023/12/19 12:02:33;;;;;;;;;;;;;;;13.22;nan;101411.00;5040455;28;19955;-84
2023/12/19 12:05:16;;;;;;;;;;;;;;;13.23;nan;101404.53;5042957;28;19917;-84
2023/12/19 12:07:51;;;;;;;;;;;;;;;13.24;nan;101419.63;5036406;28;19917;-84
2023/12/19 12:10:20;;;;;;;;;;;;;;;13.29;nan;101414.34;5034179;28;20563;-84
2023/12/19 12:12:46;;;;;;;;;;;;;;;13.30;nan;101409.75;5036380;28;20412;-84
2023/12/19 12:15:13;;;;;;;;;;;;;;;13.34;nan;101416.25;5045322;28;19917;-84
2023/12/19 12:17:38;;;;;;;;;;;;;;;13.32;nan;101396.06;5026454;28;20679;-84
2023/12/19 12:20:04;;;;;;;;;;;;;;;13.32;nan;101391.47;5023288;28;19921;-84
2023/12/19 12:22:30;;;;;;;;;;;;;;;13.28;nan;101403.78;5047726;28;19921;-85
2023/12/19 12:24:55;;;;;;;;;;;;;;;13.27;nan;101410.22;5035991;28;19925;-84
2023/12/19 12:27:21;;;;;;;;;;;;;;;13.17;nan;101415.47;5041781;28;20015;-84
2023/12/19 12:29:46;;;;;;;;;;;;;;;13.16;nan;101401.19;5032358;28;19920;-83
2023/12/19 12:32:12;;;;;;;;;;;;;;;13.17;nan;101412.78;5034187;28;19921;-84
2023/12/19 12:34:37;;;;;;;;;;;;;;;13.14;nan;101400.63;5041300;28;19947;-84
2023/12/19 12:37:03;;;;;;;;;;;;;;;13.16;nan;101395.00;5040531;28;19925;-84
2023/12/19 12:39:29;;;;;;;;;;;;;;;13.20;nan;101394.28;5036316;28;20429;-84
2023/12/19 12:42:03;;;;;;;;;;;;;;;13.26;nan;101395.16;5038788;28;19928;-84
2023/12/19 12:44:29;;;;;;;;;;;;;;;13.28;nan;101377.72;5037103;28;19923;-85
2023/12/19 12:46:54;;;;;;;;;;;;;;;13.28;nan;101368.81;5036036;28;19921;-83
2023/12/19 12:49:19;;;;;;;;;;;;;;;13.33;nan;101374.28;5037608;28;20930;-84
2023/12/19 12:51:45;;;;;;;;;;;;;;;13.33;nan;101360.00;5038278;28;19917;-84
2023/12/19 12:54:10;;;;;;;;;;;;;;;13.31;nan;101362.94;5041577;28;20381;-84